createdAt,value
2023-02-05T00:02:02.275Z,71.71
2023-02-05T00:05:05.436Z,71.82
2023-02-05T00:08:08.127Z,71.66
2023-02-05T00:11:10.814Z,71.59
2023-02-05T00:14:13.710Z,71.71
2023-02-05T00:17:17.685Z,71.62
2023-02-05T00:20:20.608Z,71.76
2023-02-05T00:23:23.172Z,71.66
2023-02-05T00:26:25.781Z,71.58
2023-02-05T00:29:28.517Z,71.77
2023-02-05T00:32:32.782Z,72.49
2023-02-05T00:35:35.719Z,72.25
2023-02-05T00:38:38.864Z,71.79
2023-02-05T00:41:41.695Z,71.65
2023-02-05T00:44:44.299Z,71.60
2023-02-05T00:47:48.688Z,71.82
2023-02-05T00:50:52.014Z,72.09
2023-02-05T00:53:54.809Z,71.95
2023-02-05T00:56:57.480Z,72.09
2023-02-05T01:00:00.146Z,71.97
2023-02-05T01:03:04.297Z,72.08
2023-02-05T01:06:07.533Z,71.97
2023-02-05T01:09:10.167Z,72.11
2023-02-05T01:12:14.179Z,72.14
2023-02-05T01:15:16.968Z,72.22
2023-02-05T01:18:20.952Z,72.59
2023-02-05T01:21:24.827Z,72.60
2023-02-05T01:24:27.342Z,72.26
2023-02-05T01:27:30.062Z,72.03
2023-02-05T01:30:32.742Z,72.22
2023-02-05T01:33:36.798Z,72.48
2023-02-05T01:36:39.518Z,72.37
2023-02-05T01:39:42.092Z,72.53
2023-02-05T01:42:44.841Z,72.13
2023-02-05T01:46:07.318Z,72.60
2023-02-05T01:49:14.747Z,72.36
2023-02-05T01:52:18.005Z,72.75
2023-02-05T01:55:21.276Z,72.96
2023-02-05T01:58:25.726Z,73.40
2023-02-05T02:01:29.113Z,73.32
2023-02-05T02:04:37.574Z,72.86
2023-02-05T02:07:40.279Z,73.05
2023-02-05T02:10:44.898Z,73.04
2023-02-05T02:13:48.828Z,73.21
2023-02-05T02:16:51.233Z,73.40
2023-02-05T02:20:00.352Z,73.32
2023-02-05T02:23:10.127Z,73.30
2023-02-05T02:26:28.490Z,73.56
2023-02-05T02:29:37.316Z,73.08
2023-02-05T02:32:41.777Z,73.13
2023-02-05T02:35:48.984Z,73.05
2023-02-05T02:38:55.013Z,72.91
2023-02-05T02:42:03.511Z,72.94
2023-02-05T02:45:09.922Z,72.98
2023-02-05T02:48:13.692Z,73.00
2023-02-05T02:51:17.477Z,72.41
2023-02-05T02:54:22.311Z,72.21
2023-02-05T02:57:27.017Z,72.21
2023-02-05T03:00:32.026Z,72.14
2023-02-05T03:03:37.678Z,72.66
2023-02-05T03:06:41.323Z,73.22
2023-02-05T03:09:48.171Z,72.85
2023-02-05T03:12:50.868Z,72.69
2023-02-05T03:15:55.088Z,72.52
2023-02-05T03:18:58.364Z,72.42
2023-02-05T03:22:04.510Z,72.22
2023-02-05T03:25:07.845Z,72.17
2023-02-05T03:28:10.717Z,72.17
2023-02-05T03:31:18.085Z,72.29
2023-02-05T03:34:28.234Z,72.00
2023-02-05T03:37:38.859Z,72.17
2023-02-05T03:40:46.687Z,72.26
2023-02-05T03:43:54.667Z,72.34
2023-02-05T03:47:02.616Z,72.82
2023-02-05T03:50:13.698Z,73.74
2023-02-05T03:53:22.667Z,75.57
2023-02-05T03:56:28.569Z,76.72
2023-02-05T03:59:31.530Z,77.04
2023-02-05T04:02:36.687Z,77.34
2023-02-05T04:05:39.420Z,77.22
2023-02-05T04:08:44.209Z,77.21
2023-02-05T04:11:46.929Z,77.23
2023-02-05T04:14:49.502Z,77.58
2023-02-05T04:17:53.519Z,78.31
2023-02-05T04:20:56.793Z,78.95
2023-02-05T04:23:59.528Z,79.18
2023-02-05T04:27:02.605Z,79.63
2023-02-05T04:30:06.837Z,79.62
2023-02-05T04:33:11.357Z,79.94
2023-02-05T04:36:15.294Z,80.09
2023-02-05T04:39:18.066Z,79.99
2023-02-05T04:42:20.676Z,80.17
2023-02-05T04:45:23.956Z,80.43
2023-02-05T04:48:27.866Z,80.57
2023-02-05T04:51:30.386Z,80.54
2023-02-05T04:54:33.295Z,80.60
2023-02-05T04:57:36.068Z,80.90
2023-02-05T05:00:38.748Z,81.17
2023-02-05T05:03:43.565Z,81.74
2023-02-05T05:06:46.169Z,81.71
2023-02-05T05:09:49.044Z,80.77
2023-02-05T05:12:53.197Z,80.08
2023-02-05T05:15:56.330Z,79.41
2023-02-05T05:19:00.397Z,78.40
2023-02-05T05:22:03.743Z,77.96
2023-02-05T05:25:06.832Z,77.74
2023-02-05T05:28:09.540Z,77.02
2023-02-05T05:31:16.535Z,76.95
2023-02-05T05:34:20.889Z,76.54
2023-02-05T05:37:23.463Z,76.17
2023-02-05T05:40:43.643Z,76.48
2023-02-05T05:43:49.521Z,76.21
2023-02-05T05:46:52.529Z,76.40
2023-02-05T05:49:56.531Z,76.05
2023-02-05T05:52:59.222Z,76.10
2023-02-05T05:56:01.968Z,76.51
2023-02-05T05:59:04.874Z,76.02
2023-02-05T06:02:08.046Z,75.84
2023-02-05T06:05:12.572Z,76.09
2023-02-05T06:08:16.315Z,76.05
2023-02-05T06:11:19.146Z,75.75
2023-02-05T06:14:21.756Z,75.66
2023-02-05T06:17:24.648Z,75.82
2023-02-05T06:20:28.731Z,75.87
2023-02-05T06:23:31.411Z,76.21
2023-02-05T06:26:34.021Z,76.05
2023-02-05T06:29:36.742Z,76.20
2023-02-05T06:32:39.494Z,76.00
2023-02-05T06:35:43.483Z,76.05
2023-02-05T06:38:46.519Z,75.49
2023-02-05T06:41:49.273Z,75.45
2023-02-05T06:44:51.945Z,75.29
2023-02-05T06:47:56.054Z,74.69
2023-02-05T06:51:00.045Z,74.55
2023-02-05T06:54:02.817Z,74.05
2023-02-05T06:57:05.632Z,73.72
2023-02-05T07:00:09.702Z,73.95
2023-02-05T07:03:12.375Z,73.63
2023-02-05T07:06:16.350Z,73.72
2023-02-05T07:09:19.196Z,73.09
2023-02-05T07:12:22.596Z,73.21
2023-02-05T07:15:25.283Z,72.61
2023-02-05T07:18:27.852Z,72.96
2023-02-05T07:21:32.886Z,72.78
2023-02-05T07:24:35.443Z,72.83
2023-02-05T07:27:38.052Z,72.47
2023-02-05T07:30:41.070Z,72.28
2023-02-05T07:33:44.216Z,72.37
2023-02-05T07:36:50.997Z,72.71
2023-02-05T07:39:53.811Z,72.92
2023-02-05T07:42:56.465Z,72.95
2023-02-05T07:45:59.590Z,72.75
2023-02-05T07:49:02.747Z,72.66
2023-02-05T07:52:08.063Z,72.22
2023-02-05T07:55:10.837Z,71.90
2023-02-05T07:58:14.027Z,71.54
2023-02-05T08:01:16.800Z,71.75
2023-02-05T08:04:20.151Z,71.54
2023-02-05T08:07:24.303Z,71.87
2023-02-05T08:10:27.211Z,71.38
2023-02-05T08:13:38.059Z,70.87
2023-02-05T08:16:40.881Z,70.31
2023-02-05T08:19:43.539Z,69.74
2023-02-05T08:22:47.862Z,70.58
2023-02-05T08:25:54.500Z,71.06
2023-02-05T08:28:57.256Z,70.94
2023-02-05T08:32:00.112Z,70.51
2023-02-05T08:35:02.992Z,70.38
2023-02-05T08:38:07.136Z,69.73
2023-02-05T08:41:13.369Z,68.98
2023-02-05T08:44:16.146Z,68.44
2023-02-05T08:47:20.446Z,67.45
2023-02-05T08:50:23.475Z,67.79
2023-02-05T08:53:27.454Z,67.63
2023-02-05T08:56:30.072Z,67.08
2023-02-05T08:59:32.719Z,66.81
2023-02-05T09:02:35.550Z,66.65
2023-02-05T09:05:39.745Z,65.90
2023-02-05T09:08:43.999Z,66.94
2023-02-05T09:11:47.416Z,66.75
2023-02-05T09:14:50.047Z,66.57
2023-02-05T09:17:52.780Z,66.68
2023-02-05T09:20:55.464Z,66.75
2023-02-05T09:23:59.450Z,67.31
2023-02-05T09:27:02.213Z,67.88
2023-02-05T09:30:05.594Z,68.38
2023-02-05T09:33:08.728Z,69.32
2023-02-05T09:36:16.203Z,69.93
2023-02-05T09:39:44.304Z,70.13
2023-02-05T09:42:46.003Z,70.66
2023-02-05T09:45:56.270Z,70.98
2023-02-05T09:49:03.578Z,71.98
2023-02-05T09:52:13.034Z,73.10
2023-02-05T09:55:21.813Z,73.58
2023-02-05T09:58:25.853Z,74.50
2023-02-05T10:01:37.802Z,74.76
2023-02-05T10:04:40.575Z,75.76
2023-02-05T10:07:49.286Z,76.28
2023-02-05T10:10:55.018Z,76.79
2023-02-05T10:14:03.159Z,76.71
2023-02-05T10:17:14.296Z,76.55
2023-02-05T10:20:25.125Z,76.12
2023-02-05T10:23:51.879Z,75.89
2023-02-05T10:27:02.239Z,75.65
2023-02-05T10:30:11.170Z,75.95
2023-02-05T10:33:18.737Z,77.29
2023-02-05T10:36:22.897Z,77.13
2023-02-05T10:39:27.610Z,76.21
2023-02-05T10:42:34.508Z,75.94
2023-02-05T10:45:37.332Z,75.98
2023-02-05T10:48:43.127Z,74.67
2023-02-05T10:51:46.887Z,75.38
2023-02-05T10:54:49.457Z,75.37
2023-02-05T10:57:53.541Z,75.56
2023-02-05T11:00:56.406Z,74.68
2023-02-05T11:04:02.096Z,74.74
2023-02-05T11:07:06.359Z,74.85
2023-02-05T11:10:17.158Z,74.49
2023-02-05T11:13:22.979Z,74.39
2023-02-05T11:16:36.934Z,75.59
2023-02-05T11:19:39.484Z,74.70
2023-02-05T11:22:42.641Z,75.12
2023-02-05T11:25:53.953Z,74.34
2023-02-05T11:28:58.439Z,73.75
2023-02-05T11:32:01.162Z,73.28
2023-02-05T11:35:19.311Z,72.95
2023-02-05T11:38:29.896Z,71.96
2023-02-05T11:41:48.048Z,72.87
2023-02-05T11:44:53.673Z,72.03
2023-02-05T11:47:56.684Z,71.41
2023-02-05T11:50:59.409Z,70.27
2023-02-05T11:54:03.868Z,71.60
2023-02-05T11:57:09.157Z,70.75
2023-02-05T12:00:23.156Z,71.13
2023-02-05T12:03:29.988Z,72.34
2023-02-05T12:06:37.509Z,72.14
2023-02-05T12:09:40.146Z,73.43
2023-02-05T12:12:49.113Z,75.08
2023-02-05T12:16:00.870Z,75.16
2023-02-05T12:19:11.287Z,75.42
2023-02-05T12:22:21.983Z,74.45
2023-02-05T12:25:26.968Z,75.04
2023-02-05T12:28:36.356Z,76.79
2023-02-05T12:31:49.450Z,77.60
2023-02-05T12:35:03.866Z,77.70
2023-02-05T12:38:21.244Z,78.92
2023-02-05T12:41:33.057Z,79.09
2023-02-05T12:44:45.265Z,80.55
2023-02-05T12:48:01.228Z,81.00
2023-02-05T12:51:22.380Z,81.46
2023-02-05T12:54:39.169Z,81.19
2023-02-05T12:57:45.154Z,81.47
2023-02-05T13:00:51.860Z,81.29
2023-02-05T13:04:00.260Z,81.12
2023-02-05T13:07:11.802Z,80.90
2023-02-05T13:10:18.509Z,79.87
2023-02-05T13:13:26.910Z,80.48
2023-02-05T13:16:34.781Z,80.61
2023-02-05T13:19:41.351Z,80.64
2023-02-05T13:23:07.788Z,80.60
2023-02-05T13:26:30.261Z,80.00
2023-02-05T13:29:46.401Z,80.13
2023-02-05T13:32:51.860Z,79.06
2023-02-05T13:36:01.999Z,79.09
2023-02-05T13:39:18.080Z,79.30
2023-02-05T13:42:39.496Z,80.36
2023-02-05T13:46:33.450Z,81.44
2023-02-05T13:49:59.225Z,81.08
2023-02-05T13:53:15.591Z,81.66
2023-02-05T13:56:33.387Z,83.21
2023-02-05T13:59:38.094Z,82.62
2023-02-05T14:02:43.249Z,81.94
2023-02-05T14:05:45.919Z,82.63
2023-02-05T14:08:51.755Z,82.18
2023-02-05T14:11:56.914Z,83.66
2023-02-05T14:15:25.750Z,83.88
2023-02-05T14:18:49.530Z,82.83
2023-02-05T14:22:07.654Z,83.69
2023-02-05T14:25:51.687Z,83.64
2023-02-05T14:29:02.195Z,82.32
2023-02-05T14:32:04.845Z,82.66
2023-02-05T14:35:29.189Z,82.94
2023-02-05T14:38:32.637Z,83.51
2023-02-05T14:41:50.625Z,82.95
2023-02-05T14:44:57.381Z,83.66
2023-02-05T14:48:00.216Z,82.55
2023-02-05T14:51:08.424Z,82.41
2023-02-05T14:54:16.581Z,82.43
2023-02-05T14:57:22.369Z,81.70
2023-02-05T15:00:35.177Z,82.71
2023-02-05T15:03:39.555Z,82.88
2023-02-05T15:06:43.140Z,82.61
2023-02-05T15:09:49.271Z,81.45
2023-02-05T15:13:03.343Z,81.90
2023-02-05T15:16:18.483Z,81.90
2023-02-05T15:19:21.223Z,81.54
2023-02-05T15:22:27.535Z,81.72
2023-02-05T15:25:35.201Z,81.10
2023-02-05T15:28:41.446Z,80.96
2023-02-05T15:31:47.661Z,81.62
2023-02-05T15:34:52.543Z,81.36
2023-02-05T15:37:57.089Z,82.14
2023-02-05T15:41:00.166Z,82.04
2023-02-05T15:44:03.895Z,82.15
2023-02-05T15:47:15.289Z,82.28
2023-02-05T15:50:18.408Z,82.53
2023-02-05T15:53:34.192Z,82.42
2023-02-05T15:56:39.397Z,82.28
2023-02-05T15:59:42.185Z,82.48
2023-02-05T16:02:54.449Z,82.66
2023-02-05T16:05:57.237Z,82.76
2023-02-05T16:08:59.964Z,82.32
2023-02-05T16:12:12.608Z,82.56
2023-02-05T16:15:15.772Z,83.00
2023-02-05T16:18:28.837Z,82.33
2023-02-05T16:21:34.174Z,82.78
2023-02-05T16:24:39.587Z,82.96
2023-02-05T16:27:45.648Z,83.40
2023-02-05T16:30:49.078Z,83.14
2023-02-05T16:33:55.211Z,83.48
2023-02-05T16:37:01.903Z,83.23
2023-02-05T16:40:09.780Z,83.31
2023-02-05T16:43:28.443Z,83.54
2023-02-05T16:46:31.856Z,83.43
2023-02-05T16:49:36.029Z,83.17
2023-02-05T16:52:38.922Z,82.88
2023-02-05T16:55:42.521Z,82.46
2023-02-05T16:58:47.289Z,82.53
2023-02-05T17:01:50.668Z,82.78
2023-02-05T17:04:56.858Z,82.30
2023-02-05T17:08:02.443Z,82.48
2023-02-05T17:11:07.267Z,82.54
2023-02-05T17:14:22.287Z,82.46
2023-02-05T17:17:26.114Z,83.61
2023-02-05T17:20:29.905Z,83.46
2023-02-05T17:23:32.601Z,83.41
2023-02-05T17:26:38.635Z,83.38
2023-02-05T17:29:41.406Z,83.54
2023-02-05T17:32:46.979Z,83.45
2023-02-05T17:35:51.338Z,83.47
2023-02-05T17:38:54.252Z,84.19
2023-02-05T17:42:07.915Z,84.38
2023-02-05T17:45:16.173Z,83.96
2023-02-05T17:48:20.204Z,83.98
2023-02-05T17:51:25.355Z,84.38
2023-02-05T17:54:28.070Z,84.26
2023-02-05T17:57:34.240Z,84.29
2023-02-05T18:00:37.060Z,84.39
2023-02-05T18:03:43.042Z,84.18
2023-02-05T18:06:49.447Z,84.29
2023-02-05T18:09:52.180Z,84.44
2023-02-05T18:12:55.712Z,83.85
2023-02-05T18:16:03.223Z,84.20
2023-02-05T18:19:06.493Z,84.24
2023-02-05T18:22:10.370Z,83.79
2023-02-05T18:25:12.944Z,83.25
2023-02-05T18:28:15.664Z,82.49
2023-02-05T18:31:18.831Z,81.91
2023-02-05T18:34:21.545Z,81.94
2023-02-05T18:37:26.617Z,81.99
2023-02-05T18:40:29.457Z,82.11
2023-02-05T18:43:32.037Z,81.31
2023-02-05T18:46:35.037Z,81.33
2023-02-05T18:49:37.623Z,81.34
2023-02-05T18:52:41.526Z,81.26
2023-02-05T18:55:44.063Z,80.58
2023-02-05T18:58:52.404Z,80.68
2023-02-05T19:01:55.121Z,80.79
2023-02-05T19:04:57.846Z,80.50
2023-02-05T19:08:04.643Z,80.29
2023-02-05T19:11:10.016Z,80.39
2023-02-05T19:14:14.545Z,80.19
2023-02-05T19:17:17.922Z,80.51
2023-02-05T19:20:20.818Z,80.33
2023-02-05T19:23:24.972Z,79.93
2023-02-05T19:26:29.542Z,80.21
2023-02-05T19:29:37.960Z,80.16
2023-02-05T19:32:40.809Z,80.31
2023-02-05T19:35:43.532Z,79.97
2023-02-05T19:38:47.842Z,80.21
2023-02-05T19:41:51.993Z,79.88
2023-02-05T19:44:54.735Z,80.25
2023-02-05T19:47:57.406Z,80.10
2023-02-05T19:51:04.812Z,80.28
2023-02-05T19:54:08.839Z,80.25
2023-02-05T19:57:11.424Z,80.31
2023-02-05T20:00:15.248Z,80.15
2023-02-05T20:03:18.049Z,80.13
2023-02-05T20:06:24.429Z,79.93
2023-02-05T20:09:29.029Z,80.13
2023-02-05T20:12:31.653Z,79.86
2023-02-05T20:15:36.903Z,80.19
2023-02-05T20:18:40.008Z,80.33
2023-02-05T20:21:42.829Z,80.14
2023-02-05T20:24:47.380Z,79.30
2023-02-05T20:27:50.295Z,79.00
2023-02-05T20:31:10.742Z,79.10
2023-02-05T20:34:18.364Z,79.65
2023-02-05T20:37:21.321Z,80.17
2023-02-05T20:40:25.709Z,80.12
2023-02-05T20:43:28.324Z,79.93
2023-02-05T20:46:31.397Z,80.03
2023-02-05T20:49:35.861Z,80.00
2023-02-05T20:52:38.490Z,79.93
2023-02-05T20:55:42.448Z,79.68
2023-02-05T20:58:45.421Z,79.60
2023-02-05T21:01:48.419Z,79.83
2023-02-05T21:04:52.694Z,79.55
2023-02-05T21:07:55.520Z,79.64
2023-02-05T21:10:59.638Z,79.99
2023-02-05T21:14:03.415Z,79.79
2023-02-05T21:17:09.223Z,79.76
2023-02-05T21:20:11.944Z,79.80
2023-02-05T21:23:14.557Z,80.23
2023-02-05T21:26:23.370Z,79.80
2023-02-05T21:29:25.967Z,79.39
2023-02-05T21:32:30.646Z,79.43
2023-02-05T21:35:33.296Z,78.96
2023-02-05T21:38:36.717Z,79.01
2023-02-05T21:41:40.780Z,78.84
2023-02-05T21:44:44.351Z,79.09
2023-02-05T21:47:46.869Z,78.92
2023-02-05T21:50:49.510Z,78.96
2023-02-05T21:53:55.228Z,79.05
2023-02-05T21:56:59.212Z,78.88
2023-02-05T22:00:03.291Z,78.76
2023-02-05T22:03:05.953Z,79.09
2023-02-05T22:06:09.406Z,78.73
2023-02-05T22:09:13.785Z,78.59
2023-02-05T22:12:17.930Z,78.73
2023-02-05T22:15:20.589Z,79.09
2023-02-05T22:18:23.145Z,79.01
2023-02-05T22:21:28.080Z,79.11
2023-02-05T22:24:30.916Z,78.58
2023-02-05T22:27:35.075Z,79.07
2023-02-05T22:30:37.869Z,79.04
2023-02-05T22:33:42.216Z,79.10
2023-02-05T22:36:45.081Z,79.25
2023-02-05T22:39:48.846Z,78.54
2023-02-05T22:42:52.983Z,78.50
2023-02-05T22:45:55.664Z,78.60
2023-02-05T22:49:00.236Z,78.00
2023-02-05T22:52:03.168Z,77.93
2023-02-05T22:55:06.662Z,78.20
2023-02-05T22:58:11.201Z,77.95
2023-02-05T23:01:15.876Z,78.29
2023-02-05T23:04:18.611Z,78.24
2023-02-05T23:07:21.276Z,77.85
2023-02-05T23:10:24.460Z,78.32
2023-02-05T23:13:28.376Z,77.72
2023-02-05T23:16:31.670Z,78.21
2023-02-05T23:19:34.663Z,78.04
2023-02-05T23:22:37.519Z,78.23
2023-02-05T23:25:40.248Z,78.47
2023-02-05T23:28:45.038Z,78.65
2023-02-05T23:31:47.945Z,78.73
2023-02-05T23:34:50.635Z,78.43
2023-02-05T23:37:53.402Z,78.28
2023-02-05T23:40:57.017Z,78.31
2023-02-05T23:44:00.978Z,78.98
2023-02-05T23:47:03.621Z,78.84
2023-02-05T23:50:07.040Z,78.90
2023-02-05T23:53:09.925Z,78.87
2023-02-05T23:56:12.711Z,78.42
2023-02-05T23:59:17.107Z,78.53
